sensor_id;sensor_type;location;lat;lon;timestamp;temperature;humidity
36446;DHT22;22472;50.848;-1.216;2022-10-19T00:00:00;15.20;99.90
36446;DHT22;22472;50.848;-1.216;2022-10-19T00:02:27;15.20;99.90
36446;DHT22;22472;50.848;-1.216;2022-10-19T00:04:54;15.20;99.90
36446;DHT22;22472;50.848;-1.216;2022-10-19T00:07:21;15.10;99.90
36446;DHT22;22472;50.848;-1.216;2022-10-19T00:09:48;15.10;99.90
36446;DHT22;22472;50.848;-1.216;2022-10-19T00:12:16;15.10;99.90
36446;DHT22;22472;50.848;-1.216;2022-10-19T00:14:43;15.10;99.90
36446;DHT22;22472;50.848;-1.216;2022-10-19T00:17:10;15.10;99.90
36446;DHT22;22472;50.848;-1.216;2022-10-19T00:19:37;15.10;99.90
36446;DHT22;22472;50.848;-1.216;2022-10-19T00:22:04;15.10;99.90
36446;DHT22;22472;50.848;-1.216;2022-10-19T00:24:31;15.10;99.90
36446;DHT22;22472;50.848;-1.216;2022-10-19T00:26:57;15.10;99.90
36446;DHT22;22472;50.848;-1.216;2022-10-19T00:29:26;15.10;99.90
36446;DHT22;22472;50.848;-1.216;2022-10-19T00:31:53;15.10;99.90
36446;DHT22;22472;50.848;-1.216;2022-10-19T00:34:20;15.10;99.90
36446;DHT22;22472;50.848;-1.216;2022-10-19T00:36:46;15.10;99.90
36446;DHT22;22472;50.848;-1.216;2022-10-19T00:39:15;15.10;99.90
36446;DHT22;22472;50.848;-1.216;2022-10-19T00:41:44;15.10;99.90
36446;DHT22;22472;50.848;-1.216;2022-10-19T00:47:18;15.10;99.90
36446;DHT22;22472;50.848;-1.216;2022-10-19T00:49:46;15.10;99.90
36446;DHT22;22472;50.848;-1.216;2022-10-19T00:52:16;15.10;99.90
36446;DHT22;22472;50.848;-1.216;2022-10-19T00:54:45;15.10;99.90
36446;DHT22;22472;50.848;-1.216;2022-10-19T00:57:13;15.10;99.90
36446;DHT22;22472;50.848;-1.216;2022-10-19T00:59:41;15.20;99.90
36446;DHT22;22472;50.848;-1.216;2022-10-19T01:02:09;15.20;99.90
36446;DHT22;22472;50.848;-1.216;2022-10-19T01:04:39;15.10;99.90
36446;DHT22;22472;50.848;-1.216;2022-10-19T01:07:08;15.10;99.90
36446;DHT22;22472;50.848;-1.216;2022-10-19T01:09:35;15.10;99.90
36446;DHT22;22472;50.848;-1.216;2022-10-19T01:12:06;15.10;99.90
36446;DHT22;22472;50.848;-1.216;2022-10-19T01:14:44;15.10;99.90
36446;DHT22;22472;50.848;-1.216;2022-10-19T01:17:21;15.10;99.90
36446;DHT22;22472;50.848;-1.216;2022-10-19T01:20:19;15.10;99.90
36446;DHT22;22472;50.848;-1.216;2022-10-19T01:23:03;15.10;99.90
36446;DHT22;22472;50.848;-1.216;2022-10-19T01:25:40;15.20;99.90
36446;DHT22;22472;50.848;-1.216;2022-10-19T01:28:18;15.20;99.90
36446;DHT22;22472;50.848;-1.216;2022-10-19T01:30:52;15.20;99.90
36446;DHT22;22472;50.848;-1.216;2022-10-19T01:33:29;15.10;99.90
36446;DHT22;22472;50.848;-1.216;2022-10-19T01:36:04;15.10;99.90
36446;DHT22;22472;50.848;-1.216;2022-10-19T01:38:37;15.10;99.90
36446;DHT22;22472;50.848;-1.216;2022-10-19T01:41:14;15.10;99.90
36446;DHT22;22472;50.848;-1.216;2022-10-19T01:43:49;15.10;99.90
36446;DHT22;22472;50.848;-1.216;2022-10-19T01:46:27;15.10;99.90
36446;DHT22;22472;50.848;-1.216;2022-10-19T01:48:58;15.10;99.90
36446;DHT22;22472;50.848;-1.216;2022-10-19T01:51:27;15.10;99.90
36446;DHT22;22472;50.848;-1.216;2022-10-19T01:53:59;15.10;99.90
36446;DHT22;22472;50.848;-1.216;2022-10-19T01:56:29;15.10;99.90
36446;DHT22;22472;50.848;-1.216;2022-10-19T01:59:00;15.10;99.90
36446;DHT22;22472;50.848;-1.216;2022-10-19T02:01:31;15.10;99.90
36446;DHT22;22472;50.848;-1.216;2022-10-19T02:03:59;15.10;99.90
36446;DHT22;22472;50.848;-1.216;2022-10-19T02:06:27;15.10;99.90
36446;DHT22;22472;50.848;-1.216;2022-10-19T02:08:55;15.10;99.90
36446;DHT22;22472;50.848;-1.216;2022-10-19T02:11:22;15.10;99.90
36446;DHT22;22472;50.848;-1.216;2022-10-19T02:13:53;15.10;99.90
36446;DHT22;22472;50.848;-1.216;2022-10-19T02:16:26;15.10;99.90
36446;DHT22;22472;50.848;-1.216;2022-10-19T02:18:56;15.10;99.90
36446;DHT22;22472;50.848;-1.216;2022-10-19T02:21:25;15.10;99.90
36446;DHT22;22472;50.848;-1.216;2022-10-19T02:23:52;15.10;99.90
36446;DHT22;22472;50.848;-1.216;2022-10-19T02:26:20;15.10;99.90
36446;DHT22;22472;50.848;-1.216;2022-10-19T02:28:47;15.10;99.90
36446;DHT22;22472;50.848;-1.216;2022-10-19T02:31:15;15.10;99.90
36446;DHT22;22472;50.848;-1.216;2022-10-19T02:33:42;15.10;99.90
36446;DHT22;22472;50.848;-1.216;2022-10-19T02:36:11;15.10;99.90
36446;DHT22;22472;50.848;-1.216;2022-10-19T02:38:39;15.10;99.90
36446;DHT22;22472;50.848;-1.216;2022-10-19T02:41:14;15.10;99.90
36446;DHT22;22472;50.848;-1.216;2022-10-19T02:43:44;15.10;99.90
36446;DHT22;22472;50.848;-1.216;2022-10-19T02:46:19;15.10;99.90
36446;DHT22;22472;50.848;-1.216;2022-10-19T02:48:49;15.00;99.90
36446;DHT22;22472;50.848;-1.216;2022-10-19T02:51:29;15.00;99.90
36446;DHT22;22472;50.848;-1.216;2022-10-19T02:53:56;15.00;99.90
36446;DHT22;22472;50.848;-1.216;2022-10-19T02:56:23;15.00;99.90
36446;DHT22;22472;50.848;-1.216;2022-10-19T02:58:50;15.00;99.90
36446;DHT22;22472;50.848;-1.216;2022-10-19T03:01:17;15.10;99.90
36446;DHT22;22472;50.848;-1.216;2022-10-19T03:03:44;15.10;99.90
36446;DHT22;22472;50.848;-1.216;2022-10-19T03:06:11;15.10;99.90
36446;DHT22;22472;50.848;-1.216;2022-10-19T03:08:40;15.10;99.90
36446;DHT22;22472;50.848;-1.216;2022-10-19T03:11:07;15.10;99.90
36446;DHT22;22472;50.848;-1.216;2022-10-19T03:13:33;15.10;99.90
36446;DHT22;22472;50.848;-1.216;2022-10-19T03:16:07;15.10;99.90
36446;DHT22;22472;50.848;-1.216;2022-10-19T03:18:34;15.20;99.90
36446;DHT22;22472;50.848;-1.216;2022-10-19T03:21:03;15.20;99.90
36446;DHT22;22472;50.848;-1.216;2022-10-19T03:23:30;15.20;99.90
36446;DHT22;22472;50.848;-1.216;2022-10-19T03:25:58;15.20;99.90
36446;DHT22;22472;50.848;-1.216;2022-10-19T03:28:25;15.20;99.90
36446;DHT22;22472;50.848;-1.216;2022-10-19T03:30:52;15.20;99.90
36446;DHT22;22472;50.848;-1.216;2022-10-19T03:33:19;15.20;99.90
36446;DHT22;22472;50.848;-1.216;2022-10-19T03:35:46;15.20;99.90
36446;DHT22;22472;50.848;-1.216;2022-10-19T03:38:13;15.20;99.90
36446;DHT22;22472;50.848;-1.216;2022-10-19T03:40:40;15.20;99.90
36446;DHT22;22472;50.848;-1.216;2022-10-19T03:43:08;15.20;99.90
36446;DHT22;22472;50.848;-1.216;2022-10-19T03:45:35;15.20;99.90
36446;DHT22;22472;50.848;-1.216;2022-10-19T03:48:02;15.20;99.90
36446;DHT22;22472;50.848;-1.216;2022-10-19T03:50:29;15.20;99.90
36446;DHT22;22472;50.848;-1.216;2022-10-19T03:52:56;15.20;99.90
36446;DHT22;22472;50.848;-1.216;2022-10-19T03:55:23;15.20;99.90
36446;DHT22;22472;50.848;-1.216;2022-10-19T03:57:51;15.20;99.90
36446;DHT22;22472;50.848;-1.216;2022-10-19T04:00:19;15.20;99.90
36446;DHT22;22472;50.848;-1.216;2022-10-19T04:02:46;15.20;99.90
36446;DHT22;22472;50.848;-1.216;2022-10-19T04:05:13;15.20;99.90
36446;DHT22;22472;50.848;-1.216;2022-10-19T04:07:40;15.10;99.90
36446;DHT22;22472;50.848;-1.216;2022-10-19T04:10:07;15.10;99.90
36446;DHT22;22472;50.848;-1.216;2022-10-19T04:12:34;15.10;99.90
36446;DHT22;22472;50.848;-1.216;2022-10-19T04:15:01;15.10;99.90
36446;DHT22;22472;50.848;-1.216;2022-10-19T04:17:30;15.10;99.90
36446;DHT22;22472;50.848;-1.216;2022-10-19T04:19:57;15.10;99.90
36446;DHT22;22472;50.848;-1.216;2022-10-19T04:22:23;15.10;99.90
36446;DHT22;22472;50.848;-1.216;2022-10-19T04:24:51;15.00;99.90
36446;DHT22;22472;50.848;-1.216;2022-10-19T04:27:19;15.00;99.90
36446;DHT22;22472;50.848;-1.216;2022-10-19T04:29:46;15.00;99.90
36446;DHT22;22472;50.848;-1.216;2022-10-19T04:32:13;15.00;99.90
36446;DHT22;22472;50.848;-1.216;2022-10-19T04:34:41;15.00;99.90
36446;DHT22;22472;50.848;-1.216;2022-10-19T04:37:08;14.90;99.90
36446;DHT22;22472;50.848;-1.216;2022-10-19T04:39:35;14.90;99.90
36446;DHT22;22472;50.848;-1.216;2022-10-19T04:42:05;14.90;99.90
36446;DHT22;22472;50.848;-1.216;2022-10-19T04:44:32;14.90;99.90
36446;DHT22;22472;50.848;-1.216;2022-10-19T04:46:59;14.90;99.90
36446;DHT22;22472;50.848;-1.216;2022-10-19T04:49:26;14.90;99.90
36446;DHT22;22472;50.848;-1.216;2022-10-19T04:51:54;14.90;99.90
36446;DHT22;22472;50.848;-1.216;2022-10-19T04:54:21;14.90;99.90
36446;DHT22;22472;50.848;-1.216;2022-10-19T04:56:48;14.90;99.90
36446;DHT22;22472;50.848;-1.216;2022-10-19T04:59:15;14.90;99.90
36446;DHT22;22472;50.848;-1.216;2022-10-19T05:01:42;14.90;99.90
36446;DHT22;22472;50.848;-1.216;2022-10-19T05:04:09;14.90;99.90
36446;DHT22;22472;50.848;-1.216;2022-10-19T05:06:37;14.90;99.90
36446;DHT22;22472;50.848;-1.216;2022-10-19T05:09:05;14.90;99.90
36446;DHT22;22472;50.848;-1.216;2022-10-19T05:11:32;14.90;99.90
36446;DHT22;22472;50.848;-1.216;2022-10-19T05:13:59;14.80;99.90
36446;DHT22;22472;50.848;-1.216;2022-10-19T05:16:26;14.80;99.90
36446;DHT22;22472;50.848;-1.216;2022-10-19T05:18:55;14.80;99.90
36446;DHT22;22472;50.848;-1.216;2022-10-19T05:21:24;14.80;99.90
36446;DHT22;22472;50.848;-1.216;2022-10-19T05:23:52;14.80;99.90
36446;DHT22;22472;50.848;-1.216;2022-10-19T05:26:22;14.80;99.90
36446;DHT22;22472;50.848;-1.216;2022-10-19T05:28:50;14.80;99.90
36446;DHT22;22472;50.848;-1.216;2022-10-19T05:31:23;14.80;99.90
36446;DHT22;22472;50.848;-1.216;2022-10-19T05:33:50;14.80;99.90
36446;DHT22;22472;50.848;-1.216;2022-10-19T05:36:18;14.80;99.90
36446;DHT22;22472;50.848;-1.216;2022-10-19T05:38:47;14.80;99.90
36446;DHT22;22472;50.848;-1.216;2022-10-19T05:41:14;14.80;99.90
36446;DHT22;22472;50.848;-1.216;2022-10-19T05:43:44;14.80;99.90
36446;DHT22;22472;50.848;-1.216;2022-10-19T05:46:13;14.80;99.90
36446;DHT22;22472;50.848;-1.216;2022-10-19T05:48:42;14.80;99.90
36446;DHT22;22472;50.848;-1.216;2022-10-19T05:51:11;14.70;99.90
36446;DHT22;22472;50.848;-1.216;2022-10-19T05:53:38;14.70;99.90
36446;DHT22;22472;50.848;-1.216;2022-10-19T05:56:06;14.70;99.90
36446;DHT22;22472;50.848;-1.216;2022-10-19T05:58:34;14.70;99.90
36446;DHT22;22472;50.848;-1.216;2022-10-19T06:01:03;14.70;99.90
36446;DHT22;22472;50.848;-1.216;2022-10-19T06:03:29;14.70;99.90
36446;DHT22;22472;50.848;-1.216;2022-10-19T06:05:57;14.70;99.90
36446;DHT22;22472;50.848;-1.216;2022-10-19T06:08:24;14.70;99.90
36446;DHT22;22472;50.848;-1.216;2022-10-19T06:10:51;14.80;99.90
36446;DHT22;22472;50.848;-1.216;2022-10-19T06:13:19;14.80;99.90
36446;DHT22;22472;50.848;-1.216;2022-10-19T06:15:49;14.80;99.90
36446;DHT22;22472;50.848;-1.216;2022-10-19T06:18:18;14.80;99.90
36446;DHT22;22472;50.848;-1.216;2022-10-19T06:20:45;14.80;99.90
36446;DHT22;22472;50.848;-1.216;2022-10-19T06:23:12;14.80;99.90
36446;DHT22;22472;50.848;-1.216;2022-10-19T06:25:39;14.80;99.90
36446;DHT22;22472;50.848;-1.216;2022-10-19T06:28:06;14.80;99.90
36446;DHT22;22472;50.848;-1.216;2022-10-19T06:30:36;14.80;99.90
36446;DHT22;22472;50.848;-1.216;2022-10-19T06:33:03;14.80;99.90
36446;DHT22;22472;50.848;-1.216;2022-10-19T06:35:32;14.80;99.90
36446;DHT22;22472;50.848;-1.216;2022-10-19T06:37:59;14.80;99.90
36446;DHT22;22472;50.848;-1.216;2022-10-19T06:40:26;14.80;99.90
36446;DHT22;22472;50.848;-1.216;2022-10-19T06:42:54;14.80;99.90
36446;DHT22;22472;50.848;-1.216;2022-10-19T06:45:21;14.90;99.90
36446;DHT22;22472;50.848;-1.216;2022-10-19T06:47:48;14.80;99.90
36446;DHT22;22472;50.848;-1.216;2022-10-19T06:50:15;14.80;99.90
36446;DHT22;22472;50.848;-1.216;2022-10-19T06:52:44;14.90;99.90
36446;DHT22;22472;50.848;-1.216;2022-10-19T06:55:11;14.90;99.90
36446;DHT22;22472;50.848;-1.216;2022-10-19T06:57:38;14.90;99.90
36446;DHT22;22472;50.848;-1.216;2022-10-19T07:00:06;14.90;99.90
36446;DHT22;22472;50.848;-1.216;2022-10-19T07:02:33;14.90;99.90
36446;DHT22;22472;50.848;-1.216;2022-10-19T07:05:00;15.00;99.90
36446;DHT22;22472;50.848;-1.216;2022-10-19T07:07:27;15.00;99.90
36446;DHT22;22472;50.848;-1.216;2022-10-19T07:09:56;15.00;99.90
36446;DHT22;22472;50.848;-1.216;2022-10-19T07:12:23;15.00;99.90
36446;DHT22;22472;50.848;-1.216;2022-10-19T07:14:50;15.10;99.90
36446;DHT22;22472;50.848;-1.216;2022-10-19T07:17:17;15.10;99.90
36446;DHT22;22472;50.848;-1.216;2022-10-19T07:19:44;15.20;99.90
36446;DHT22;22472;50.848;-1.216;2022-10-19T07:22:11;15.20;99.90
36446;DHT22;22472;50.848;-1.216;2022-10-19T07:24:38;15.20;99.90
36446;DHT22;22472;50.848;-1.216;2022-10-19T07:27:06;15.20;99.90
36446;DHT22;22472;50.848;-1.216;2022-10-19T07:29:33;15.30;99.90
36446;DHT22;22472;50.848;-1.216;2022-10-19T07:32:01;15.30;99.90
36446;DHT22;22472;50.848;-1.216;2022-10-19T07:34:28;15.30;99.90
36446;DHT22;22472;50.848;-1.216;2022-10-19T07:36:55;15.40;99.90
36446;DHT22;22472;50.848;-1.216;2022-10-19T07:39:22;15.50;99.90
36446;DHT22;22472;50.848;-1.216;2022-10-19T07:41:49;15.50;99.90
36446;DHT22;22472;50.848;-1.216;2022-10-19T07:44:17;15.50;99.90
36446;DHT22;22472;50.848;-1.216;2022-10-19T07:46:44;15.50;99.90
36446;DHT22;22472;50.848;-1.216;2022-10-19T07:49:13;15.60;99.90
36446;DHT22;22472;50.848;-1.216;2022-10-19T07:51:43;15.70;99.90
36446;DHT22;22472;50.848;-1.216;2022-10-19T07:54:10;15.80;99.90
36446;DHT22;22472;50.848;-1.216;2022-10-19T07:56:37;15.80;99.90
36446;DHT22;22472;50.848;-1.216;2022-10-19T07:59:05;15.80;99.90
36446;DHT22;22472;50.848;-1.216;2022-10-19T08:01:38;15.90;99.90
36446;DHT22;22472;50.848;-1.216;2022-10-19T08:04:06;16.00;99.90
36446;DHT22;22472;50.848;-1.216;2022-10-19T08:06:33;16.10;99.90
36446;DHT22;22472;50.848;-1.216;2022-10-19T08:09:02;16.10;99.90
36446;DHT22;22472;50.848;-1.216;2022-10-19T08:11:31;16.20;99.90
36446;DHT22;22472;50.848;-1.216;2022-10-19T08:13:59;16.30;99.90
36446;DHT22;22472;50.848;-1.216;2022-10-19T08:16:29;16.30;99.90
36446;DHT22;22472;50.848;-1.216;2022-10-19T08:19:00;16.50;99.90
36446;DHT22;22472;50.848;-1.216;2022-10-19T08:21:27;16.60;99.90
36446;DHT22;22472;50.848;-1.216;2022-10-19T08:23:55;16.60;99.90
36446;DHT22;22472;50.848;-1.216;2022-10-19T08:26:22;16.80;99.90
36446;DHT22;22472;50.848;-1.216;2022-10-19T08:28:49;16.90;99.90
36446;DHT22;22472;50.848;-1.216;2022-10-19T08:31:18;16.90;99.90
36446;DHT22;22472;50.848;-1.216;2022-10-19T08:33:47;16.90;99.90
36446;DHT22;22472;50.848;-1.216;2022-10-19T08:36:16;17.00;99.90
36446;DHT22;22472;50.848;-1.216;2022-10-19T08:38:44;17.00;99.90
36446;DHT22;22472;50.848;-1.216;2022-10-19T08:41:26;17.00;99.90
36446;DHT22;22472;50.848;-1.216;2022-10-19T08:46:54;17.00;99.90
36446;DHT22;22472;50.848;-1.216;2022-10-19T08:49:25;17.00;99.90
36446;DHT22;22472;50.848;-1.216;2022-10-19T08:51:57;17.00;99.90
36446;DHT22;22472;50.848;-1.216;2022-10-19T08:54:31;17.00;99.90
36446;DHT22;22472;50.848;-1.216;2022-10-19T08:57:11;17.10;99.90
36446;DHT22;22472;50.848;-1.216;2022-10-19T08:59:45;17.10;99.90
36446;DHT22;22472;50.848;-1.216;2022-10-19T09:02:18;17.20;99.90
36446;DHT22;22472;50.848;-1.216;2022-10-19T09:04:49;17.30;99.90
36446;DHT22;22472;50.848;-1.216;2022-10-19T09:07:26;17.40;99.90
36446;DHT22;22472;50.848;-1.216;2022-10-19T09:09:56;17.60;99.90
36446;DHT22;22472;50.848;-1.216;2022-10-19T09:12:32;17.60;99.90
36446;DHT22;22472;50.848;-1.216;2022-10-19T09:15:03;17.60;99.90
36446;DHT22;22472;50.848;-1.216;2022-10-19T09:17:31;17.70;99.90
36446;DHT22;22472;50.848;-1.216;2022-10-19T09:20:13;17.80;99.90
36446;DHT22;22472;50.848;-1.216;2022-10-19T09:22:43;17.90;99.90
36446;DHT22;22472;50.848;-1.216;2022-10-19T09:25:13;18.00;99.90
36446;DHT22;22472;50.848;-1.216;2022-10-19T09:27:46;18.10;99.90
36446;DHT22;22472;50.848;-1.216;2022-10-19T09:30:17;18.10;99.90
36446;DHT22;22472;50.848;-1.216;2022-10-19T09:32:45;18.20;99.90
36446;DHT22;22472;50.848;-1.216;2022-10-19T09:35:25;18.20;99.90
36446;DHT22;22472;50.848;-1.216;2022-10-19T09:38:04;18.20;99.90
36446;DHT22;22472;50.848;-1.216;2022-10-19T09:40:33;18.20;99.90
36446;DHT22;22472;50.848;-1.216;2022-10-19T09:43:00;18.30;99.90
36446;DHT22;22472;50.848;-1.216;2022-10-19T09:45:48;18.30;99.90
36446;DHT22;22472;50.848;-1.216;2022-10-19T09:48:22;18.40;99.90
36446;DHT22;22472;50.848;-1.216;2022-10-19T09:50:55;18.40;99.90
36446;DHT22;22472;50.848;-1.216;2022-10-19T09:53:25;18.50;99.90
36446;DHT22;22472;50.848;-1.216;2022-10-19T09:55:57;18.90;99.90
36446;DHT22;22472;50.848;-1.216;2022-10-19T09:58:26;19.50;99.90
36446;DHT22;22472;50.848;-1.216;2022-10-19T10:00:55;19.80;99.90
36446;DHT22;22472;50.848;-1.216;2022-10-19T10:03:25;19.90;99.90
36446;DHT22;22472;50.848;-1.216;2022-10-19T10:05:54;19.70;99.90
36446;DHT22;22472;50.848;-1.216;2022-10-19T10:08:24;19.90;99.90
36446;DHT22;22472;50.848;-1.216;2022-10-19T10:10:56;20.20;99.90
36446;DHT22;22472;50.848;-1.216;2022-10-19T10:13:26;20.40;99.90
36446;DHT22;22472;50.848;-1.216;2022-10-19T10:15:55;20.40;99.90
36446;DHT22;22472;50.848;-1.216;2022-10-19T10:18:24;20.60;99.90
36446;DHT22;22472;50.848;-1.216;2022-10-19T10:20:57;20.80;99.90
36446;DHT22;22472;50.848;-1.216;2022-10-19T10:23:28;20.70;99.90
36446;DHT22;22472;50.848;-1.216;2022-10-19T10:25:58;20.80;99.90
36446;DHT22;22472;50.848;-1.216;2022-10-19T10:28:27;20.80;99.90
36446;DHT22;22472;50.848;-1.216;2022-10-19T10:30:59;20.80;99.90
36446;DHT22;22472;50.848;-1.216;2022-10-19T10:33:29;20.90;99.90
36446;DHT22;22472;50.848;-1.216;2022-10-19T10:36:02;21.00;99.90
36446;DHT22;22472;50.848;-1.216;2022-10-19T10:38:34;21.20;99.90
36446;DHT22;22472;50.848;-1.216;2022-10-19T10:41:04;21.20;99.90
36446;DHT22;22472;50.848;-1.216;2022-10-19T10:43:34;21.10;99.90
36446;DHT22;22472;50.848;-1.216;2022-10-19T10:46:04;21.20;99.90
36446;DHT22;22472;50.848;-1.216;2022-10-19T10:48:36;21.40;99.90
36446;DHT22;22472;50.848;-1.216;2022-10-19T10:51:08;21.40;99.90
36446;DHT22;22472;50.848;-1.216;2022-10-19T10:53:40;21.50;99.90
36446;DHT22;22472;50.848;-1.216;2022-10-19T10:56:21;21.60;99.90
36446;DHT22;22472;50.848;-1.216;2022-10-19T10:58:54;21.80;99.90
36446;DHT22;22472;50.848;-1.216;2022-10-19T11:01:27;21.80;99.90
36446;DHT22;22472;50.848;-1.216;2022-10-19T11:03:58;22.00;99.90
36446;DHT22;22472;50.848;-1.216;2022-10-19T11:06:26;22.00;99.90
36446;DHT22;22472;50.848;-1.216;2022-10-19T11:08:59;22.00;99.90
36446;DHT22;22472;50.848;-1.216;2022-10-19T11:11:33;22.00;99.90
36446;DHT22;22472;50.848;-1.216;2022-10-19T11:14:14;21.90;99.90
36446;DHT22;22472;50.848;-1.216;2022-10-19T11:16:47;21.70;99.90
36446;DHT22;22472;50.848;-1.216;2022-10-19T11:19:18;21.80;99.90
36446;DHT22;22472;50.848;-1.216;2022-10-19T11:21:49;21.70;99.90
36446;DHT22;22472;50.848;-1.216;2022-10-19T11:24:31;21.70;99.90
36446;DHT22;22472;50.848;-1.216;2022-10-19T11:27:12;21.90;99.90
36446;DHT22;22472;50.848;-1.216;2022-10-19T11:29:44;22.10;99.90
36446;DHT22;22472;50.848;-1.216;2022-10-19T11:32:21;22.00;99.90
36446;DHT22;22472;50.848;-1.216;2022-10-19T11:34:59;21.90;99.90
36446;DHT22;22472;50.848;-1.216;2022-10-19T11:37:33;22.00;99.90
36446;DHT22;22472;50.848;-1.216;2022-10-19T11:40:11;22.10;99.90
36446;DHT22;22472;50.848;-1.216;2022-10-19T11:42:47;22.30;99.90
36446;DHT22;22472;50.848;-1.216;2022-10-19T11:45:26;22.40;99.90
36446;DHT22;22472;50.848;-1.216;2022-10-19T11:48:20;22.50;99.90
36446;DHT22;22472;50.848;-1.216;2022-10-19T11:50:52;22.60;99.90
36446;DHT22;22472;50.848;-1.216;2022-10-19T11:53:25;22.70;99.90
36446;DHT22;22472;50.848;-1.216;2022-10-19T11:56:02;22.70;99.90
36446;DHT22;22472;50.848;-1.216;2022-10-19T11:58:45;22.60;99.90
36446;DHT22;22472;50.848;-1.216;2022-10-19T12:01:28;22.50;99.90
36446;DHT22;22472;50.848;-1.216;2022-10-19T12:04:22;22.50;99.90
36446;DHT22;22472;50.848;-1.216;2022-10-19T12:06:55;22.30;99.90
36446;DHT22;22472;50.848;-1.216;2022-10-19T12:09:34;22.40;99.90
36446;DHT22;22472;50.848;-1.216;2022-10-19T12:12:25;22.30;99.90
36446;DHT22;22472;50.848;-1.216;2022-10-19T12:17:45;22.40;99.90
36446;DHT22;22472;50.848;-1.216;2022-10-19T12:20:20;22.30;99.90
36446;DHT22;22472;50.848;-1.216;2022-10-19T12:22:48;22.30;99.90
36446;DHT22;22472;50.848;-1.216;2022-10-19T12:25:16;22.20;99.90
36446;DHT22;22472;50.848;-1.216;2022-10-19T12:27:46;22.10;99.90
36446;DHT22;22472;50.848;-1.216;2022-10-19T12:30:16;22.30;99.90
36446;DHT22;22472;50.848;-1.216;2022-10-19T12:32:58;22.60;99.90
36446;DHT22;22472;50.848;-1.216;2022-10-19T12:35:38;22.80;99.90
36446;DHT22;22472;50.848;-1.216;2022-10-19T12:38:13;23.00;99.90
36446;DHT22;22472;50.848;-1.216;2022-10-19T12:40:45;23.20;99.90
36446;DHT22;22472;50.848;-1.216;2022-10-19T12:43:19;23.30;99.90
36446;DHT22;22472;50.848;-1.216;2022-10-19T12:45:58;23.30;99.90
36446;DHT22;22472;50.848;-1.216;2022-10-19T12:48:29;23.30;99.90
36446;DHT22;22472;50.848;-1.216;2022-10-19T12:51:10;23.30;99.90
36446;DHT22;22472;50.848;-1.216;2022-10-19T12:53:40;23.20;99.90
36446;DHT22;22472;50.848;-1.216;2022-10-19T12:56:21;23.10;99.90
36446;DHT22;22472;50.848;-1.216;2022-10-19T12:58:56;22.80;99.90
36446;DHT22;22472;50.848;-1.216;2022-10-19T13:01:26;22.80;99.90
36446;DHT22;22472;50.848;-1.216;2022-10-19T13:04:07;22.60;99.90
36446;DHT22;22472;50.848;-1.216;2022-10-19T13:06:36;22.40;99.90
36446;DHT22;22472;50.848;-1.216;2022-10-19T13:09:05;22.40;99.90
36446;DHT22;22472;50.848;-1.216;2022-10-19T13:11:33;22.30;99.90
36446;DHT22;22472;50.848;-1.216;2022-10-19T13:14:41;22.40;99.90
36446;DHT22;22472;50.848;-1.216;2022-10-19T13:17:08;22.60;99.90
36446;DHT22;22472;50.848;-1.216;2022-10-19T13:19:35;22.40;99.90
36446;DHT22;22472;50.848;-1.216;2022-10-19T13:22:26;22.40;99.90
36446;DHT22;22472;50.848;-1.216;2022-10-19T13:25:20;22.90;99.90
36446;DHT22;22472;50.848;-1.216;2022-10-19T13:27:49;23.10;99.90
36446;DHT22;22472;50.848;-1.216;2022-10-19T13:33:46;23.20;99.90
36446;DHT22;22472;50.848;-1.216;2022-10-19T13:36:14;23.30;99.90
36446;DHT22;22472;50.848;-1.216;2022-10-19T13:38:42;23.40;99.90
36446;DHT22;22472;50.848;-1.216;2022-10-19T13:41:14;23.30;99.90
36446;DHT22;22472;50.848;-1.216;2022-10-19T13:43:51;23.30;99.90
36446;DHT22;22472;50.848;-1.216;2022-10-19T13:46:21;23.30;99.90
36446;DHT22;22472;50.848;-1.216;2022-10-19T13:49:29;23.20;99.90
36446;DHT22;22472;50.848;-1.216;2022-10-19T13:52:23;23.30;99.90
36446;DHT22;22472;50.848;-1.216;2022-10-19T13:58:17;23.10;99.90
36446;DHT22;22472;50.848;-1.216;2022-10-19T14:01:00;23.00;99.90
36446;DHT22;22472;50.848;-1.216;2022-10-19T14:03:39;22.80;99.90
36446;DHT22;22472;50.848;-1.216;2022-10-19T14:06:21;22.60;99.90
36446;DHT22;22472;50.848;-1.216;2022-10-19T14:11:54;22.50;99.90
36446;DHT22;22472;50.848;-1.216;2022-10-19T14:14:28;22.70;99.90
36446;DHT22;22472;50.848;-1.216;2022-10-19T14:16:57;22.70;99.90
36446;DHT22;22472;50.848;-1.216;2022-10-19T14:19:27;22.70;99.90
36446;DHT22;22472;50.848;-1.216;2022-10-19T14:21:57;22.90;99.90
36446;DHT22;22472;50.848;-1.216;2022-10-19T14:24:28;22.90;99.90
36446;DHT22;22472;50.848;-1.216;2022-10-19T14:26:58;22.60;99.90
36446;DHT22;22472;50.848;-1.216;2022-10-19T14:29:25;22.20;99.90
36446;DHT22;22472;50.848;-1.216;2022-10-19T14:31:52;22.00;99.90
36446;DHT22;22472;50.848;-1.216;2022-10-19T14:34:19;21.90;99.90
36446;DHT22;22472;50.848;-1.216;2022-10-19T14:36:47;21.80;99.90
36446;DHT22;22472;50.848;-1.216;2022-10-19T14:39:25;21.60;99.90
36446;DHT22;22472;50.848;-1.216;2022-10-19T14:41:53;21.60;99.90
36446;DHT22;22472;50.848;-1.216;2022-10-19T14:44:37;21.70;99.90
36446;DHT22;22472;50.848;-1.216;2022-10-19T14:47:19;21.70;99.90
36446;DHT22;22472;50.848;-1.216;2022-10-19T14:49:46;21.80;99.90
36446;DHT22;22472;50.848;-1.216;2022-10-19T14:52:18;21.80;99.90
36446;DHT22;22472;50.848;-1.216;2022-10-19T14:54:48;21.80;99.90
36446;DHT22;22472;50.848;-1.216;2022-10-19T14:57:21;21.80;99.90
36446;DHT22;22472;50.848;-1.216;2022-10-19T14:59:52;21.80;99.90
36446;DHT22;22472;50.848;-1.216;2022-10-19T15:02:22;21.70;99.90
36446;DHT22;22472;50.848;-1.216;2022-10-19T15:04:50;21.60;99.90
36446;DHT22;22472;50.848;-1.216;2022-10-19T15:07:29;21.50;99.90
36446;DHT22;22472;50.848;-1.216;2022-10-19T15:09:59;21.50;99.90
36446;DHT22;22472;50.848;-1.216;2022-10-19T15:12:28;21.40;99.90
36446;DHT22;22472;50.848;-1.216;2022-10-19T15:15:00;21.30;99.90
36446;DHT22;22472;50.848;-1.216;2022-10-19T15:17:32;21.10;99.90
36446;DHT22;22472;50.848;-1.216;2022-10-19T15:20:00;21.00;99.90
36446;DHT22;22472;50.848;-1.216;2022-10-19T15:22:38;20.90;99.90
36446;DHT22;22472;50.848;-1.216;2022-10-19T15:25:30;20.80;99.90
36446;DHT22;22472;50.848;-1.216;2022-10-19T15:28:19;20.70;99.90
36446;DHT22;22472;50.848;-1.216;2022-10-19T15:30:57;20.70;99.90
36446;DHT22;22472;50.848;-1.216;2022-10-19T15:33:24;20.70;99.90
36446;DHT22;22472;50.848;-1.216;2022-10-19T15:36:02;20.80;99.90
36446;DHT22;22472;50.848;-1.216;2022-10-19T15:38:29;20.80;99.90
36446;DHT22;22472;50.848;-1.216;2022-10-19T15:41:00;20.60;99.90
36446;DHT22;22472;50.848;-1.216;2022-10-19T15:43:36;20.60;99.90
36446;DHT22;22472;50.848;-1.216;2022-10-19T15:46:05;20.50;99.90
36446;DHT22;22472;50.848;-1.216;2022-10-19T15:48:45;20.40;99.90
36446;DHT22;22472;50.848;-1.216;2022-10-19T15:51:42;20.40;99.90
36446;DHT22;22472;50.848;-1.216;2022-10-19T15:54:10;20.30;99.90
36446;DHT22;22472;50.848;-1.216;2022-10-19T15:56:43;20.30;99.90